الصفحة الرئيسية
METAR-TAF:

METAR-TAF

مطار :

مطار نينوي أكوينو الدولي

مانيلا, الفلبين

دائرة عرض: 14-31N, خط طول: 121-00E, ارتفاع: 14 متر

مراقبة الطقس الحالي

تاريخ ووقت الإصدار 25 دقيقة قبل الساعة 15:00UTC
ريح 2 عقدة من الشمال الشرقي
درجة الحرارة 26°درجة مئوية
الرطوبة 74%
ضغط 1012 hPa
الرؤية 10 كم أو أكثر
غيوم قليلة على ارتفاع 2500 قدم

METAR: RPLL 231500Z 05002KT 9999 FEW025 26/21 Q1012 NOSIG RMK A2988

زمن: 23:25 (15:25 UTC)

توقعات

تاريخ ووقت الإصدار 4ساعات و 25 دقيقة قبل الساعة 11:00UTC
التوقعات صالحة من23 الساعة 12 UTC إلى 24 الساعة 18 UTC
ريح 7 عقدة من الشمال الشرقي
الرؤية 10 كم أو أكثر
غيوم قليلة على ارتفاع 2300 قدم
غيوم متفرقة على ارتفاع 10000 قدم
مؤقت
من 23 الساعة 12 UTC إلى 23 الساعة 18 UTC
ريح 6 عقدة من الشرق
غيوم متفرقة على ارتفاع 2300 قدم
غيوم مفككة على ارتفاع 10000 قدم
مؤقت
من 23 الساعة 18 UTC إلى 23 الساعة 24 UTC
غيوم متفرقة على ارتفاع 2300 قدم
غيوم مفككة على ارتفاع 10000 قدم

TAF: RPLL 231100Z 2312/2418 04007KT 9999 FEW023 SCT100 TX30/2406Z TN24/2322Z TEMPO 2312/2318 10006KT SCT023 BKN100 TEMPO 2318/2324 SCT023 BKN100

أرصاد الطقس والتوقعات من أكثر من 4000 مطار (تقارير الطقس للمطار METAR والتنبؤ بالطقس بالمطارTAF).

المحطات المتاحة هي النقط الصفراء والحمراء على الخريطة.

حرك المؤشر فوق النقطة لمعرفة اسم المحطة.

ثم انقر لمعرفة أرصاد وتوقعات الطقس.

لتغيير الخارطة: اضغط على الأزرار الخضراء مع رمز الصليب الأسود للتكبير. على الزر الأخضر مع شرطة للتصغير، أو على الأسهم الخضراء للخرائط المجاورة.


METAR-TAF: